Terminal Aerodrome Forecast
Issued by NWS Bismarck, ND

Home | Current Version | Previous Version | Graphics & Text | Print | Product List | Glossary On
Versions: 1 2 3 4 5 6 7 8 9 10 11 12 13 14 15 16 17 18 19 20
000
FTUS43 KBIS 181100
TAFBIS
TAF
KBIS 181132Z 1812/1912 14007KT P6SM OVC006
      TEMPO 1815/1819 3SM -SN BR OVC008
     FM182000 17006KT P6SM OVC010=

USA.gov is the U.S. government's official web portal to all federal, state and local government web resources and services.